sensor_id;sensor_type;location;lat;lon;timestamp;pressure;altitude;pressure_sealevel;temperature;humidity
65359;BME280;52491;45.900;6.346;2023-01-26T00:01:11;93980.38;;;24.40;20.79
65359;BME280;52491;45.900;6.346;2023-01-26T00:03:37;93980.63;;;24.39;20.71
65359;BME280;52491;45.900;6.346;2023-01-26T00:06:08;93974.50;;;24.38;20.94
65359;BME280;52491;45.900;6.346;2023-01-26T00:08:42;93979.03;;;24.38;20.90
65359;BME280;52491;45.900;6.346;2023-01-26T00:11:10;93973.16;;;24.35;20.75
65359;BME280;52491;45.900;6.346;2023-01-26T00:13:36;93972.34;;;24.35;20.88
65359;BME280;52491;45.900;6.346;2023-01-26T00:16:02;93972.06;;;24.37;20.58
65359;BME280;52491;45.900;6.346;2023-01-26T00:18:29;93961.69;;;24.35;20.67
65359;BME280;52491;45.900;6.346;2023-01-26T00:20:56;93953.94;;;24.33;20.72
65359;BME280;52491;45.900;6.346;2023-01-26T00:23:22;93958.47;;;24.33;20.77
65359;BME280;52491;45.900;6.346;2023-01-26T00:25:48;93953.94;;;24.33;20.62
65359;BME280;52491;45.900;6.346;2023-01-26T00:28:14;93948.91;;;24.32;20.83
65359;BME280;52491;45.900;6.346;2023-01-26T00:30:39;93943.81;;;24.30;20.95
65359;BME280;52491;45.900;6.346;2023-01-26T00:33:05;93939.56;;;24.29;20.81
65359;BME280;52491;45.900;6.346;2023-01-26T00:35:30;93933.44;;;24.29;20.81
65359;BME280;52491;45.900;6.346;2023-01-26T00:37:56;93925.69;;;24.27;20.54
65359;BME280;52491;45.900;6.346;2023-01-26T00:40:22;93919.00;;;24.25;20.47
65359;BME280;52491;45.900;6.346;2023-01-26T00:42:47;93921.16;;;24.23;20.43
65359;BME280;52491;45.900;6.346;2023-01-26T00:45:13;93914.22;;;24.22;20.70
65359;BME280;52491;45.900;6.346;2023-01-26T00:47:38;93917.44;;;24.24;20.72
65359;BME280;52491;45.900;6.346;2023-01-26T00:50:05;93910.50;;;24.23;20.53
65359;BME280;52491;45.900;6.346;2023-01-26T00:52:30;93912.63;;;24.21;20.64
65359;BME280;52491;45.900;6.346;2023-01-26T00:54:56;93911.81;;;24.20;20.61
65359;BME280;52491;45.900;6.346;2023-01-26T00:57:21;93899.53;;;24.19;20.53
65359;BME280;52491;45.900;6.346;2023-01-26T00:59:47;93905.16;;;24.18;20.78
65359;BME280;52491;45.900;6.346;2023-01-26T01:02:13;93907.03;;;24.17;20.64
65359;BME280;52491;45.900;6.346;2023-01-26T01:04:38;93901.69;;;24.17;20.54
65359;BME280;52491;45.900;6.346;2023-01-26T01:07:04;93905.94;;;24.18;20.62
65359;BME280;52491;45.900;6.346;2023-01-26T01:09:30;93899.03;;;24.17;20.32
65359;BME280;52491;45.900;6.346;2023-01-26T01:11:55;93902.50;;;24.18;20.55
65359;BME280;52491;45.900;6.346;2023-01-26T01:14:21;93900.06;;;24.16;20.54
65359;BME280;52491;45.900;6.346;2023-01-26T01:16:46;93902.19;;;24.14;20.56
65359;BME280;52491;45.900;6.346;2023-01-26T01:19:17;93900.34;;;24.15;20.37
65359;BME280;52491;45.900;6.346;2023-01-26T01:21:43;93893.41;;;24.13;20.62
65359;BME280;52491;45.900;6.346;2023-01-26T01:24:12;93892.34;;;24.15;20.48
65359;BME280;52491;45.900;6.346;2023-01-26T01:26:38;93897.13;;;24.12;20.51
65359;BME280;52491;45.900;6.346;2023-01-26T01:29:04;93891.81;;;24.12;20.32
65359;BME280;52491;45.900;6.346;2023-01-26T01:31:32;93892.06;;;24.11;20.32
65359;BME280;52491;45.900;6.346;2023-01-26T01:33:57;93885.13;;;24.10;20.40
65359;BME280;52491;45.900;6.346;2023-01-26T01:36:23;93880.88;;;24.09;20.42
65359;BME280;52491;45.900;6.346;2023-01-26T01:38:49;93878.22;;;24.09;20.39
65359;BME280;52491;45.900;6.346;2023-01-26T01:41:18;93876.34;;;24.09;20.21
65359;BME280;52491;45.900;6.346;2023-01-26T01:43:44;93875.56;;;24.09;20.47
65359;BME280;52491;45.900;6.346;2023-01-26T01:49:00;93875.56;;;24.09;20.27
65359;BME280;52491;45.900;6.346;2023-01-26T01:51:49;93874.22;;;24.06;20.16
65359;BME280;52491;45.900;6.346;2023-01-26T01:54:25;93865.41;;;24.06;20.41
65359;BME280;52491;45.900;6.346;2023-01-26T01:56:55;93869.94;;;24.05;20.17
65359;BME280;52491;45.900;6.346;2023-01-26T01:59:22;93868.09;;;24.06;20.19
65359;BME280;52491;45.900;6.346;2023-01-26T02:01:50;93876.06;;;24.06;20.26
65359;BME280;52491;45.900;6.346;2023-01-26T02:04:16;93867.00;;;24.02;20.13
65359;BME280;52491;45.900;6.346;2023-01-26T02:06:52;93875.25;;;24.05;20.15
65359;BME280;52491;45.900;6.346;2023-01-26T02:09:25;93873.91;;;24.03;20.20
65359;BME280;52491;45.900;6.346;2023-01-26T02:12:13;93865.41;;;24.01;20.13
65359;BME280;52491;45.900;6.346;2023-01-26T02:14:39;93864.59;;;24.00;20.27
65359;BME280;52491;45.900;6.346;2023-01-26T02:17:05;93862.19;;;23.99;20.26
65359;BME280;52491;45.900;6.346;2023-01-26T02:22:41;93855.28;;;23.98;20.16
65359;BME280;52491;45.900;6.346;2023-01-26T02:27:52;93850.19;;;23.96;20.31
65359;BME280;52491;45.900;6.346;2023-01-26T02:30:17;93844.31;;;23.94;20.09
65359;BME280;52491;45.900;6.346;2023-01-26T02:32:43;93844.31;;;23.94;20.19
65359;BME280;52491;45.900;6.346;2023-01-26T02:35:09;93840.63;;;23.95;20.14
65359;BME280;52491;45.900;6.346;2023-01-26T02:37:34;93841.41;;;23.96;20.08
65359;BME280;52491;45.900;6.346;2023-01-26T02:40:12;93832.63;;;23.95;19.94
65359;BME280;52491;45.900;6.346;2023-01-26T02:42:40;93832.88;;;23.94;20.00
65359;BME280;52491;45.900;6.346;2023-01-26T02:45:11;93822.75;;;23.96;19.98
65359;BME280;52491;45.900;6.346;2023-01-26T02:47:38;93825.69;;;23.94;19.91
65359;BME280;52491;45.900;6.346;2023-01-26T02:50:08;93830.22;;;23.94;19.95
65359;BME280;52491;45.900;6.346;2023-01-26T02:52:34;93824.34;;;23.92;19.95
65359;BME280;52491;45.900;6.346;2023-01-26T02:55:00;93831.53;;;23.91;19.83
65359;BME280;52491;45.900;6.346;2023-01-26T02:57:44;93822.75;;;23.90;19.87
65359;BME280;52491;45.900;6.346;2023-01-26T03:00:13;93819.84;;;23.92;20.09
65359;BME280;52491;45.900;6.346;2023-01-26T03:02:41;93822.75;;;23.90;19.96
65359;BME280;52491;45.900;6.346;2023-01-26T03:05:07;93819.28;;;23.90;19.99
65359;BME280;52491;45.900;6.346;2023-01-26T03:07:33;93813.69;;;23.92;19.97
65359;BME280;52491;45.900;6.346;2023-01-26T03:09:58;93820.09;;;23.90;19.92
65359;BME280;52491;45.900;6.346;2023-01-26T03:12:25;93823.53;;;23.91;19.93
65359;BME280;52491;45.900;6.346;2023-01-26T03:14:51;93813.69;;;23.92;19.98
65359;BME280;52491;45.900;6.346;2023-01-26T03:17:36;93816.34;;;23.92;20.01
65359;BME280;52491;45.900;6.346;2023-01-26T03:20:02;93821.66;;;23.92;19.67
65359;BME280;52491;45.900;6.346;2023-01-26T03:22:47;93823.81;;;23.89;19.88
65359;BME280;52491;45.900;6.346;2023-01-26T03:25:31;93829.38;;;23.88;19.84
65359;BME280;52491;45.900;6.346;2023-01-26T03:28:22;93820.34;;;23.89;19.98
65359;BME280;52491;45.900;6.346;2023-01-26T03:30:49;93823.00;;;23.94;19.88
65359;BME280;52491;45.900;6.346;2023-01-26T03:33:16;93813.97;;;23.95;19.83
65359;BME280;52491;45.900;6.346;2023-01-26T03:35:42;93817.69;;;23.94;19.76
65359;BME280;52491;45.900;6.346;2023-01-26T03:38:07;93818.50;;;23.95;19.69
65359;BME280;52491;45.900;6.346;2023-01-26T03:40:33;93818.75;;;23.93;19.67
65359;BME280;52491;45.900;6.346;2023-01-26T03:43:17;93814.50;;;23.92;19.66
65359;BME280;52491;45.900;6.346;2023-01-26T03:46:06;93812.38;;;23.94;19.71
65359;BME280;52491;45.900;6.346;2023-01-26T03:48:50;93808.34;;;23.92;19.78
65359;BME280;52491;45.900;6.346;2023-01-26T03:51:34;93806.53;;;23.92;19.76
65359;BME280;52491;45.900;6.346;2023-01-26T03:54:18;93804.09;;;23.90;19.46
65359;BME280;52491;45.900;6.346;2023-01-26T03:57:02;93803.56;;;23.88;19.74
65359;BME280;52491;45.900;6.346;2023-01-26T03:59:28;93803.31;;;23.90;19.67
65359;BME280;52491;45.900;6.346;2023-01-26T04:02:05;93798.78;;;23.90;19.73
65359;BME280;52491;45.900;6.346;2023-01-26T04:04:49;93800.66;;;23.90;19.51
65359;BME280;52491;45.900;6.346;2023-01-26T04:07:34;93794.53;;;23.89;19.76
65359;BME280;52491;45.900;6.346;2023-01-26T04:10:18;93794.53;;;23.89;19.60
65359;BME280;52491;45.900;6.346;2023-01-26T04:12:43;93786.53;;;23.89;19.59
65359;BME280;52491;45.900;6.346;2023-01-26T04:15:09;93788.41;;;23.89;19.67
65359;BME280;52491;45.900;6.346;2023-01-26T04:17:53;93784.13;;;23.88;19.52
65359;BME280;52491;45.900;6.346;2023-01-26T04:20:37;93783.88;;;23.89;19.45
65359;BME280;52491;45.900;6.346;2023-01-26T04:23:21;93781.47;;;23.88;19.71
65359;BME280;52491;45.900;6.346;2023-01-26T04:25:47;93776.13;;;23.88;19.54
65359;BME280;52491;45.900;6.346;2023-01-26T04:28:13;93773.22;;;23.84;19.55
65359;BME280;52491;45.900;6.346;2023-01-26T04:30:38;93771.59;;;23.83;19.57
65359;BME280;52491;45.900;6.346;2023-01-26T04:33:04;93773.22;;;23.84;19.50
65359;BME280;52491;45.900;6.346;2023-01-26T04:35:30;93771.34;;;23.85;19.62
65359;BME280;52491;45.900;6.346;2023-01-26T04:37:56;93766.00;;;23.85;19.58
65359;BME280;52491;45.900;6.346;2023-01-26T04:40:21;93762.28;;;23.86;19.57
65359;BME280;52491;45.900;6.346;2023-01-26T04:42:47;93766.81;;;23.85;19.52
65359;BME280;52491;45.900;6.346;2023-01-26T04:45:13;93760.16;;;23.88;19.54
65359;BME280;52491;45.900;6.346;2023-01-26T04:47:38;93772.94;;;23.86;19.57
65359;BME280;52491;45.900;6.346;2023-01-26T04:50:04;93754.84;;;23.88;19.55
65359;BME280;52491;45.900;6.346;2023-01-26T04:52:30;93751.94;;;23.89;19.56
65359;BME280;52491;45.900;6.346;2023-01-26T04:54:55;93750.31;;;23.88;19.45
65359;BME280;52491;45.900;6.346;2023-01-26T04:57:21;93756.97;;;23.91;19.43
65359;BME280;52491;45.900;6.346;2023-01-26T04:59:48;93753.78;;;23.89;19.60
65359;BME280;52491;45.900;6.346;2023-01-26T05:02:13;93750.84;;;23.90;19.59
65359;BME280;52491;45.900;6.346;2023-01-26T05:04:39;93743.41;;;23.87;19.48
65359;BME280;52491;45.900;6.346;2023-01-26T05:07:04;93751.13;;;23.89;19.35
65359;BME280;52491;45.900;6.346;2023-01-26T05:09:30;93744.97;;;23.88;19.49
65359;BME280;52491;45.900;6.346;2023-01-26T05:11:55;93739.66;;;23.88;19.63
65359;BME280;52491;45.900;6.346;2023-01-26T05:14:41;93742.59;;;23.87;19.56
65359;BME280;52491;45.900;6.346;2023-01-26T05:17:06;93740.72;;;23.87;19.51
65359;BME280;52491;45.900;6.346;2023-01-26T05:19:32;93735.16;;;23.89;19.39
65359;BME280;52491;45.900;6.346;2023-01-26T05:21:57;93736.19;;;23.88;19.52
65359;BME280;52491;45.900;6.346;2023-01-26T05:24:23;93737.28;;;23.87;19.38
65359;BME280;52491;45.900;6.346;2023-01-26T05:26:49;93737.00;;;23.88;19.65
65359;BME280;52491;45.900;6.346;2023-01-26T05:29:34;93733.28;;;23.84;19.52
65359;BME280;52491;45.900;6.346;2023-01-26T05:32:00;93733.00;;;23.86;19.60
65359;BME280;52491;45.900;6.346;2023-01-26T05:34:26;93732.75;;;23.87;19.59
65359;BME280;52491;45.900;6.346;2023-01-26T05:36:52;93733.53;;;23.88;19.61
65359;BME280;52491;45.900;6.346;2023-01-26T05:39:17;93728.50;;;23.86;19.72
65359;BME280;52491;45.900;6.346;2023-01-26T05:41:43;93717.03;;;23.86;19.78
65359;BME280;52491;45.900;6.346;2023-01-26T05:44:09;93718.63;;;23.87;19.67
65359;BME280;52491;45.900;6.346;2023-01-26T05:46:35;93725.31;;;23.89;19.65
65359;BME280;52491;45.900;6.346;2023-01-26T05:49:01;93721.56;;;23.90;19.96
65359;BME280;52491;45.900;6.346;2023-01-26T05:51:27;93729.56;;;23.90;19.68
65359;BME280;52491;45.900;6.346;2023-01-26T05:53:53;93721.56;;;23.90;19.75
65359;BME280;52491;45.900;6.346;2023-01-26T05:56:19;93727.69;;;23.91;19.53
65359;BME280;52491;45.900;6.346;2023-01-26T05:58:44;93728.75;;;23.90;19.67
65359;BME280;52491;45.900;6.346;2023-01-26T06:01:10;93727.97;;;23.89;19.44
65359;BME280;52491;45.900;6.346;2023-01-26T06:03:35;93717.31;;;23.89;19.76
65359;BME280;52491;45.900;6.346;2023-01-26T06:06:01;93712.78;;;23.90;19.75
65359;BME280;52491;45.900;6.346;2023-01-26T06:08:27;93704.78;;;23.90;19.71
65359;BME280;52491;45.900;6.346;2023-01-26T06:10:58;93715.72;;;23.94;19.86
65359;BME280;52491;45.900;6.346;2023-01-26T06:13:25;93709.06;;;23.91;19.93
65359;BME280;52491;45.900;6.346;2023-01-26T06:15:52;93708.81;;;23.93;20.01
65359;BME280;52491;45.900;6.346;2023-01-26T06:18:18;93710.38;;;23.94;19.88
65359;BME280;52491;45.900;6.346;2023-01-26T06:20:44;93714.91;;;23.93;20.00
65359;BME280;52491;45.900;6.346;2023-01-26T06:23:09;93710.38;;;23.94;19.98
65359;BME280;52491;45.900;6.346;2023-01-26T06:25:37;93716.50;;;23.94;19.97
65359;BME280;52491;45.900;6.346;2023-01-26T06:28:05;93712.25;;;23.93;20.22
65359;BME280;52491;45.900;6.346;2023-01-26T06:30:31;93709.59;;;23.93;20.25
65359;BME280;52491;45.900;6.346;2023-01-26T06:32:59;93710.38;;;23.94;20.15
65359;BME280;52491;45.900;6.346;2023-01-26T06:35:25;93709.34;;;23.95;20.09
65359;BME280;52491;45.900;6.346;2023-01-26T06:37:51;93704.03;;;23.95;20.21
65359;BME280;52491;45.900;6.346;2023-01-26T06:40:17;93702.16;;;23.95;20.00
65359;BME280;52491;45.900;6.346;2023-01-26T06:42:47;93710.94;;;23.96;20.11
65359;BME280;52491;45.900;6.346;2023-01-26T06:45:13;93709.59;;;23.93;19.94
65359;BME280;52491;45.900;6.346;2023-01-26T06:47:44;93703.47;;;23.93;20.23
65359;BME280;52491;45.900;6.346;2023-01-26T06:50:10;93702.69;;;23.92;20.19
65359;BME280;52491;45.900;6.346;2023-01-26T06:52:36;93704.53;;;23.92;20.19
65359;BME280;52491;45.900;6.346;2023-01-26T06:55:02;93704.28;;;23.93;20.21
65359;BME280;52491;45.900;6.346;2023-01-26T06:57:29;93703.72;;;23.91;20.15
65359;BME280;52491;45.900;6.346;2023-01-26T06:59:54;93708.00;;;23.92;20.27
65359;BME280;52491;45.900;6.346;2023-01-26T07:02:21;93708.25;;;23.90;19.98
65359;BME280;52491;45.900;6.346;2023-01-26T07:04:48;93704.78;;;23.90;20.20
65359;BME280;52491;45.900;6.346;2023-01-26T07:07:14;93705.59;;;23.90;20.11
65359;BME280;52491;45.900;6.346;2023-01-26T07:09:40;93696.00;;;23.89;20.06
65359;BME280;52491;45.900;6.346;2023-01-26T07:12:06;93697.59;;;23.90;20.09
65359;BME280;52491;45.900;6.346;2023-01-26T07:14:31;93699.19;;;23.92;19.98
65359;BME280;52491;45.900;6.346;2023-01-26T07:16:57;93696.53;;;23.92;19.84
65359;BME280;52491;45.900;6.346;2023-01-26T07:19:23;93701.06;;;23.91;20.03
65359;BME280;52491;45.900;6.346;2023-01-26T07:21:48;93707.19;;;23.92;20.05
65359;BME280;52491;45.900;6.346;2023-01-26T07:24:14;93703.72;;;23.91;20.03
65359;BME280;52491;45.900;6.346;2023-01-26T07:26:39;93696.53;;;23.92;19.87
65359;BME280;52491;45.900;6.346;2023-01-26T07:29:05;93698.16;;;23.93;19.86
65359;BME280;52491;45.900;6.346;2023-01-26T07:31:31;93703.72;;;23.91;20.04
65359;BME280;52491;45.900;6.346;2023-01-26T07:33:56;93694.94;;;23.90;19.93
65359;BME280;52491;45.900;6.346;2023-01-26T07:36:22;93691.50;;;23.90;19.90
65359;BME280;52491;45.900;6.346;2023-01-26T07:38:47;93695.75;;;23.91;19.96
65359;BME280;52491;45.900;6.346;2023-01-26T07:41:13;93694.16;;;23.90;19.92
65359;BME280;52491;45.900;6.346;2023-01-26T07:43:39;93697.59;;;23.90;19.76
65359;BME280;52491;45.900;6.346;2023-01-26T07:46:06;93697.06;;;23.88;19.89
65359;BME280;52491;45.900;6.346;2023-01-26T07:48:31;93697.88;;;23.89;19.96
65359;BME280;52491;45.900;6.346;2023-01-26T07:50:59;93689.34;;;23.87;19.96
65359;BME280;52491;45.900;6.346;2023-01-26T07:53:26;93687.47;;;23.87;19.93
65359;BME280;52491;45.900;6.346;2023-01-26T07:55:54;93688.28;;;23.88;19.85
65359;BME280;52491;45.900;6.346;2023-01-26T07:58:20;93686.69;;;23.87;19.82
65359;BME280;52491;45.900;6.346;2023-01-26T08:00:46;93688.56;;;23.86;20.01
65359;BME280;52491;45.900;6.346;2023-01-26T08:03:12;93691.22;;;23.86;19.80
65359;BME280;52491;45.900;6.346;2023-01-26T08:05:38;93684.28;;;23.85;20.18
65359;BME280;52491;45.900;6.346;2023-01-26T08:08:04;93691.47;;;23.85;20.07
65359;BME280;52491;45.900;6.346;2023-01-26T08:10:30;93689.06;;;23.83;19.99
65359;BME280;52491;45.900;6.346;2023-01-26T08:12:58;93690.94;;;23.83;20.22
65359;BME280;52491;45.900;6.346;2023-01-26T08:15:25;93689.06;;;23.83;20.19
65359;BME280;52491;45.900;6.346;2023-01-26T08:17:52;93689.34;;;23.82;20.14
65359;BME280;52491;45.900;6.346;2023-01-26T08:20:18;93687.75;;;23.81;20.34
65359;BME280;52491;45.900;6.346;2023-01-26T08:22:43;93686.13;;;23.80;20.36
65359;BME280;52491;45.900;6.346;2023-01-26T08:25:09;93692.53;;;23.79;20.13
65359;BME280;52491;45.900;6.346;2023-01-26T08:27:35;93690.91;;;23.78;20.68
65359;BME280;52491;45.900;6.346;2023-01-26T08:30:00;93682.13;;;23.77;20.29
65359;BME280;52491;45.900;6.346;2023-01-26T08:32:28;93678.94;;;23.80;20.55
65359;BME280;52491;45.900;6.346;2023-01-26T08:34:54;93673.09;;;23.78;20.36
65359;BME280;52491;45.900;6.346;2023-01-26T08:37:19;93682.13;;;23.77;20.33
65359;BME280;52491;45.900;6.346;2023-01-26T08:39:45;93673.34;;;23.77;20.15
65359;BME280;52491;45.900;6.346;2023-01-26T08:42:10;93672.56;;;23.76;20.34
65359;BME280;52491;45.900;6.346;2023-01-26T08:44:36;93671.75;;;23.76;20.19
65359;BME280;52491;45.900;6.346;2023-01-26T08:47:02;93677.34;;;23.74;20.36
65359;BME280;52491;45.900;6.346;2023-01-26T08:49:27;93673.63;;;23.75;20.20
65359;BME280;52491;45.900;6.346;2023-01-26T08:51:53;93665.09;;;23.73;19.83
65359;BME280;52491;45.900;6.346;2023-01-26T08:54:18;93662.41;;;23.68;19.89
65359;BME280;52491;45.900;6.346;2023-01-26T08:56:44;93661.84;;;23.66;19.94
65359;BME280;52491;45.900;6.346;2023-01-26T08:59:10;93667.44;;;23.64;19.95
65359;BME280;52491;45.900;6.346;2023-01-26T09:01:35;93664.00;;;23.64;19.99
65359;BME280;52491;45.900;6.346;2023-01-26T09:04:01;93660.78;;;23.62;19.92
65359;BME280;52491;45.900;6.346;2023-01-26T09:06:27;93664.50;;;23.61;19.99
65359;BME280;52491;45.900;6.346;2023-01-26T09:08:54;93662.66;;;23.61;19.89
65359;BME280;52491;45.900;6.346;2023-01-26T09:11:20;93661.84;;;23.61;20.10
65359;BME280;52491;45.900;6.346;2023-01-26T09:13:49;93664.25;;;23.62;19.95
65359;BME280;52491;45.900;6.346;2023-01-26T09:16:21;93667.97;;;23.61;19.99
65359;BME280;52491;45.900;6.346;2023-01-26T09:18:51;93669.56;;;23.62;20.09
65359;BME280;52491;45.900;6.346;2023-01-26T09:21:18;93665.03;;;23.63;19.99
65359;BME280;52491;45.900;6.346;2023-01-26T09:23:44;93668.22;;;23.60;19.99
65359;BME280;52491;45.900;6.346;2023-01-26T09:26:09;93671.44;;;23.62;20.20
65359;BME280;52491;45.900;6.346;2023-01-26T09:28:35;93667.16;;;23.61;20.17
65359;BME280;52491;45.900;6.346;2023-01-26T09:31:05;93664.25;;;23.62;20.00
65359;BME280;52491;45.900;6.346;2023-01-26T09:33:32;93660.00;;;23.61;20.40
65359;BME280;52491;45.900;6.346;2023-01-26T09:36:05;93657.06;;;23.63;20.18
65359;BME280;52491;45.900;6.346;2023-01-26T09:38:31;93660.00;;;23.61;20.13
65359;BME280;52491;45.900;6.346;2023-01-26T09:41:04;93670.91;;;23.65;20.26
65359;BME280;52491;45.900;6.346;2023-01-26T09:43:51;93669.31;;;23.64;20.15
65359;BME280;52491;45.900;6.346;2023-01-26T09:46:22;93664.50;;;23.61;20.04
65359;BME280;52491;45.900;6.346;2023-01-26T09:49:05;93666.91;;;23.62;20.50
65359;BME280;52491;45.900;6.346;2023-01-26T09:54:33;93669.81;;;23.56;19.66
65359;BME280;52491;45.900;6.346;2023-01-26T09:57:01;93670.59;;;23.51;19.91
65359;BME280;52491;45.900;6.346;2023-01-26T09:59:44;93670.63;;;23.56;19.67
65359;BME280;52491;45.900;6.346;2023-01-26T10:05:13;93674.06;;;23.57;19.79
65359;BME280;52491;45.900;6.346;2023-01-26T10:07:44;93669.81;;;23.56;19.77
65359;BME280;52491;45.900;6.346;2023-01-26T10:10:29;93662.34;;;23.58;19.99
65359;BME280;52491;45.900;6.346;2023-01-26T10:12:57;93674.63;;;23.59;20.28
65359;BME280;52491;45.900;6.346;2023-01-26T10:15:29;93671.97;;;23.59;19.74
65359;BME280;52491;45.900;6.346;2023-01-26T10:17:59;93667.69;;;23.58;19.68
65359;BME280;52491;45.900;6.346;2023-01-26T10:20:37;93657.03;;;23.58;19.83
65359;BME280;52491;45.900;6.346;2023-01-26T10:23:16;93662.88;;;23.55;19.77
65359;BME280;52491;45.900;6.346;2023-01-26T10:25:44;93661.03;;;23.50;19.90
65359;BME280;52491;45.900;6.346;2023-01-26T10:28:18;93664.72;;;23.49;20.00
65359;BME280;52491;45.900;6.346;2023-01-26T10:30:45;93657.03;;;23.48;19.88
65359;BME280;52491;45.900;6.346;2023-01-26T10:35:49;93662.06;;;23.49;19.98
65359;BME280;52491;45.900;6.346;2023-01-26T10:41:19;93661.28;;;23.49;20.10
65359;BME280;52491;45.900;6.346;2023-01-26T10:44:03;93655.41;;;23.46;20.15
65359;BME280;52491;45.900;6.346;2023-01-26T10:46:45;93661.25;;;23.43;20.11
65359;BME280;52491;45.900;6.346;2023-01-26T10:51:38;93653.56;;;23.42;20.07
65359;BME280;52491;45.900;6.346;2023-01-26T10:54:30;93648.47;;;23.40;20.11
65359;BME280;52491;45.900;6.346;2023-01-26T10:57:13;93639.97;;;23.38;19.99
65359;BME280;52491;45.900;6.346;2023-01-26T11:00:03;93642.13;;;23.41;20.11
65359;BME280;52491;45.900;6.346;2023-01-26T11:02:34;93640.25;;;23.42;20.16
65359;BME280;52491;45.900;6.346;2023-01-26T11:07:40;93638.38;;;23.42;20.04
65359;BME280;52491;45.900;6.346;2023-01-26T11:10:32;93640.25;;;23.42;19.96
65359;BME280;52491;45.900;6.346;2023-01-26T11:13:16;93635.97;;;23.41;20.05
65359;BME280;52491;45.900;6.346;2023-01-26T11:15:48;93633.06;;;23.37;20.10
65359;BME280;52491;45.900;6.346;2023-01-26T11:26:44;93636.50;;;23.38;20.10
65359;BME280;52491;45.900;6.346;2023-01-26T11:34:52;93628.25;;;23.34;20.07
65359;BME280;52491;45.900;6.346;2023-01-26T11:37:37;93626.13;;;23.36;20.26
65359;BME280;52491;45.900;6.346;2023-01-26T11:40:46;93618.94;;;23.37;20.17
65359;BME280;52491;45.900;6.346;2023-01-26T11:43:23;93621.09;;;23.40;20.25
65359;BME280;52491;45.900;6.346;2023-01-26T11:48:48;93609.09;;;23.37;20.14
65359;BME280;52491;45.900;6.346;2023-01-26T11:51:38;93617.09;;;23.37;20.16
65359;BME280;52491;45.900;6.346;2023-01-26T12:02:26;93604.06;;;23.36;20.01
65359;BME280;52491;45.900;6.346;2023-01-26T12:04:53;93592.88;;;23.34;20.16
65359;BME280;52491;45.900;6.346;2023-01-26T12:07:47;93593.69;;;23.34;20.12
65359;BME280;52491;45.900;6.346;2023-01-26T12:10:23;93591.25;;;23.33;20.37
65359;BME280;52491;45.900;6.346;2023-01-26T12:12:59;93592.59;;;23.35;20.22
65359;BME280;52491;45.900;6.346;2023-01-26T12:15:35;93581.97;;;23.35;20.17
65359;BME280;52491;45.900;6.346;2023-01-26T12:21:02;93578.25;;;23.36;20.31
65359;BME280;52491;45.900;6.346;2023-01-26T12:26:13;93575.06;;;23.34;20.20
65359;BME280;52491;45.900;6.346;2023-01-26T12:34:20;93561.50;;;23.36;20.10
65359;BME280;52491;45.900;6.346;2023-01-26T12:39:43;93556.19;;;23.36;20.06
65359;BME280;52491;45.900;6.346;2023-01-26T12:45:20;93554.84;;;23.33;20.26
65359;BME280;52491;45.900;6.346;2023-01-26T12:47:52;93555.63;;;23.34;20.46
65359;BME280;52491;45.900;6.346;2023-01-26T12:52:58;93544.47;;;23.32;20.15
65359;BME280;52491;45.900;6.346;2023-01-26T12:55:33;93548.97;;;23.31;20.41
65359;BME280;52491;45.900;6.346;2023-01-26T12:58:19;93555.09;;;23.32;20.47
65359;BME280;52491;45.900;6.346;2023-01-26T13:00:55;93546.56;;;23.30;20.32
65359;BME280;52491;45.900;6.346;2023-01-26T13:03:25;93545.78;;;23.29;20.27
65359;BME280;52491;45.900;6.346;2023-01-26T13:05:59;93550.06;;;23.30;20.24
65359;BME280;52491;45.900;6.346;2023-01-26T13:10:56;93547.41;;;23.30;20.17
65359;BME280;52491;45.900;6.346;2023-01-26T13:13:30;93545.78;;;23.29;20.08
65359;BME280;52491;45.900;6.346;2023-01-26T13:16:30;93543.91;;;23.30;20.21
65359;BME280;52491;45.900;6.346;2023-01-26T13:18:58;93534.59;;;23.27;20.20
65359;BME280;52491;45.900;6.346;2023-01-26T13:23:55;93535.41;;;23.28;20.25
65359;BME280;52491;45.900;6.346;2023-01-26T13:26:22;93533.56;;;23.28;20.27
65359;BME280;52491;45.900;6.346;2023-01-26T13:28:49;93537.53;;;23.26;20.31
65359;BME280;52491;45.900;6.346;2023-01-26T13:31:32;93521.28;;;23.27;20.24
65359;BME280;52491;45.900;6.346;2023-01-26T13:34:01;93527.69;;;23.26;20.33
65359;BME280;52491;45.900;6.346;2023-01-26T13:36:34;93522.38;;;23.26;20.34
65359;BME280;52491;45.900;6.346;2023-01-26T13:39:28;93517.59;;;23.23;20.33
65359;BME280;52491;45.900;6.346;2023-01-26T13:41:55;93521.31;;;23.22;20.38
65359;BME280;52491;45.900;6.346;2023-01-26T13:44:52;93517.59;;;23.23;20.35
65359;BME280;52491;45.900;6.346;2023-01-26T13:47:25;93514.91;;;23.23;20.37
65359;BME280;52491;45.900;6.346;2023-01-26T13:49:52;93516.00;;;23.22;20.37
65359;BME280;52491;45.900;6.346;2023-01-26T13:52:23;93517.59;;;23.23;20.45
65359;BME280;52491;45.900;6.346;2023-01-26T13:54:52;93513.34;;;23.22;20.42
65359;BME280;52491;45.900;6.346;2023-01-26T13:57:23;93509.06;;;23.21;20.48
65359;BME280;52491;45.900;6.346;2023-01-26T13:59:56;93508.03;;;23.22;20.34
65359;BME280;52491;45.900;6.346;2023-01-26T14:02:30;93514.91;;;23.23;20.37
65359;BME280;52491;45.900;6.346;2023-01-26T14:04:57;93511.47;;;23.22;20.64
65359;BME280;52491;45.900;6.346;2023-01-26T14:07:30;93509.31;;;23.24;20.48
65359;BME280;52491;45.900;6.346;2023-01-26T14:09:58;93510.41;;;23.23;20.45
65359;BME280;52491;45.900;6.346;2023-01-26T14:12:32;93514.41;;;23.26;20.48
65359;BME280;52491;45.900;6.346;2023-01-26T14:15:02;93509.06;;;23.26;20.83
65359;BME280;52491;45.900;6.346;2023-01-26T14:17:34;93512.28;;;23.28;20.74
65359;BME280;52491;45.900;6.346;2023-01-26T14:23:11;93511.47;;;23.28;20.88
65359;BME280;52491;45.900;6.346;2023-01-26T14:25:39;93515.19;;;23.27;20.70
65359;BME280;52491;45.900;6.346;2023-01-26T14:28:09;93512.81;;;23.25;20.78
65359;BME280;52491;45.900;6.346;2023-01-26T14:30:37;93522.13;;;23.28;20.83
65359;BME280;52491;45.900;6.346;2023-01-26T14:33:03;93514.66;;;23.30;20.69